Aérodrome :
LOGIN :

S'inscrire | Disclaimer

   EN    FR    IT 

 










Légende :    VFR   VFR Marginal   IFR   IFR Intensif   IFR Très Intensif
Visi : 
Plafond : 
>= 8 km
>= 3000ft
5 à 8 km
1000 à 3000 ft
1500m à 5 km
500 à 1000 ft
800 à 1500m
200 à 500 ft
< 800m
< 200 ft
Symboles :   Orages  Brouillard  Fortes neiges  Fortes précipitations  Vent > 20 kt
SIGMETs :   Divers  Orages  Givrage  Turbulence  Onde Orograph.  Cendres Volcan.






- Altitude de l'aérodrome : 22 ft
- Code IATA : SKG


LGTS - Thessaloniki

DERNIER METAR :
  • 021420Z 25002KT 9999 SCT010 BKN025 10/06 Q1021 NOSIG

METARs EXPIRÉS :
  • 021350Z 26003KT 9999 SCT010 BKN030 10/07 Q1021 NOSIG
  • 021320Z 26004KT 9999 SCT010 BKN030 10/06 Q1021 NOSIG
  • 021250Z 26005KT 9999 SCT010 BKN030 10/06 Q1021 NOSIG
  • 021220Z 26005KT 9999 SCT010 BKN030 10/06 Q1021 NOSIG
  • 021150Z 26004KT 9999 SCT010 BKN035 10/06 Q1021 NOSIG

TAF TAF LGTS
Valide du 02 à 12h jusqu'au 03 à 12h UTC


021100Z 0212/0312 10010KT 8000 FEW008 BKN025
PROB40
TEMPO 0212/0309 5000 RA



MET'MAP, la Météo Aéronautique d'un coup d'oeil ! - Copyright ORBIFLY Décembre 2007 - Disclaimer

ORBIFLY MET'MAP TEAM :

Programmation & Développement : Alexandra Zaïnal
Sur une idée originale de : Baudouin d'Aumeries
Assistance à la programmation : Marc-Olivier Méhu
Soutien technique & logistique : Manuel Goepfert

Contact : metmap@orbifly.com




SOURCES & CREDITS :

   NOAA